createdAt,value
2016-07-18T00:00:17.369Z,0
2016-07-18T00:01:17.385Z,0
2016-07-18T00:02:32.347Z,0
2016-07-18T00:03:17.440Z,0
2016-07-18T00:04:17.471Z,0
2016-07-18T00:05:17.506Z,0
2016-07-18T00:06:17.528Z,0
2016-07-18T00:07:17.566Z,0
2016-07-18T00:08:17.581Z,0
2016-07-18T00:09:17.615Z,0
2016-07-18T00:10:17.637Z,0
2016-07-18T00:11:17.657Z,0
2016-07-18T00:13:17.716Z,0
2016-07-18T00:14:17.747Z,0
2016-07-18T00:15:17.773Z,0
2016-07-18T00:16:17.803Z,0
2016-07-18T00:17:17.826Z,0
2016-07-18T00:18:17.850Z,0
2016-07-18T00:19:17.874Z,0
2016-07-18T00:20:17.907Z,0
2016-07-18T00:21:32.866Z,0
2016-07-18T00:22:17.963Z,0
2016-07-18T00:23:17.988Z,0
2016-07-18T00:24:18.016Z,0
2016-07-18T00:26:18.072Z,0
2016-07-18T00:27:18.100Z,0
2016-07-18T00:28:18.125Z,0
2016-07-18T00:29:18.154Z,0
2016-07-18T00:30:18.175Z,0
2016-07-18T00:31:18.211Z,0
2016-07-18T00:32:18.234Z,0
2016-07-18T00:33:18.267Z,0
2016-07-18T00:35:18.318Z,0
2016-07-18T00:36:18.350Z,0
2016-07-18T00:37:33.303Z,0
2016-07-18T00:38:18.398Z,0
2016-07-18T00:39:18.420Z,0
2016-07-18T00:40:18.453Z,0
2016-07-18T00:41:18.476Z,0
2016-07-18T00:42:18.511Z,0
2016-07-18T00:43:18.530Z,0
2016-07-18T00:44:18.567Z,0
2016-07-18T00:45:18.579Z,0
2016-07-18T00:48:18.679Z,0
2016-07-18T00:49:18.697Z,0
2016-07-18T00:50:33.648Z,0
2016-07-18T00:51:18.751Z,0
2016-07-18T00:52:33.747Z,0
2016-07-18T00:53:33.731Z,0
2016-07-18T00:54:18.839Z,0
2016-07-18T00:55:18.865Z,0
2016-07-18T00:56:18.884Z,0
2016-07-18T00:57:18.924Z,0
2016-07-18T01:00:18.990Z,0
2016-07-18T01:01:19.017Z,0
2016-07-18T01:02:19.052Z,0
2016-07-18T01:03:19.080Z,0
2016-07-18T01:04:19.102Z,0
2016-07-18T01:06:19.156Z,0
2016-07-18T01:07:34.112Z,0
2016-07-18T01:08:34.135Z,0
2016-07-18T01:09:34.163Z,0
2016-07-18T01:10:19.958Z,0
2016-07-18T01:11:34.213Z,0
2016-07-18T01:12:34.241Z,0
2016-07-18T01:13:34.265Z,0
2016-07-18T01:14:19.378Z,0
2016-07-18T01:15:19.405Z,0
2016-07-18T01:16:19.427Z,0
2016-07-18T01:18:35.101Z,0
2016-07-18T01:19:19.515Z,0
2016-07-18T01:20:19.529Z,0
2016-07-18T01:21:19.560Z,0
2016-07-18T01:22:19.590Z,0
2016-07-18T01:23:19.614Z,0
2016-07-18T01:24:34.568Z,0
2016-07-18T01:25:19.675Z,0
2016-07-18T01:26:19.697Z,0
2016-07-18T01:27:34.647Z,0
2016-07-18T01:28:19.752Z,0
2016-07-18T01:29:34.716Z,0
2016-07-18T01:30:34.740Z,0
2016-07-18T01:31:19.836Z,0
2016-07-18T01:32:19.851Z,0
2016-07-18T01:33:19.889Z,0
2016-07-18T01:34:19.916Z,0
2016-07-18T01:35:19.945Z,0
2016-07-18T01:36:19.972Z,0
2016-07-18T01:37:19.999Z,0
2016-07-18T01:38:20.031Z,0
2016-07-18T01:39:20.050Z,0
2016-07-18T01:40:34.999Z,0
2016-07-18T01:41:20.106Z,0
2016-07-18T01:42:35.054Z,0
2016-07-18T01:43:20.160Z,0
2016-07-18T01:44:20.188Z,0
2016-07-18T01:45:20.211Z,0
2016-07-18T01:46:20.245Z,0
2016-07-18T01:47:20.963Z,0
2016-07-18T01:48:20.296Z,0
2016-07-18T01:49:20.322Z,0
2016-07-18T01:50:20.352Z,0
2016-07-18T01:51:20.382Z,0
2016-07-18T01:52:20.402Z,0
2016-07-18T01:53:35.354Z,0
2016-07-18T01:54:35.384Z,0
2016-07-18T01:55:20.488Z,0
2016-07-18T01:56:35.432Z,0
2016-07-18T01:57:20.548Z,0
2016-07-18T01:58:20.569Z,0
2016-07-18T01:59:20.588Z,0
2016-07-18T02:00:20.615Z,0
2016-07-18T02:01:20.645Z,0
2016-07-18T02:02:20.676Z,0
2016-07-18T02:03:20.702Z,0
2016-07-18T02:04:20.736Z,0
2016-07-18T02:05:20.767Z,0
2016-07-18T02:06:20.773Z,0
2016-07-18T02:07:20.811Z,0
2016-07-18T02:08:35.763Z,0
2016-07-18T02:09:35.791Z,0
2016-07-18T02:10:20.884Z,0
2016-07-18T02:11:20.915Z,0
2016-07-18T02:12:35.874Z,0
2016-07-18T02:13:20.969Z,0
2016-07-18T02:14:20.995Z,0
2016-07-18T02:15:21.024Z,0
2016-07-18T02:16:21.053Z,0
2016-07-18T02:17:21.079Z,0
2016-07-18T02:18:21.115Z,0
2016-07-18T02:19:21.127Z,0
2016-07-18T02:20:21.172Z,0
2016-07-18T02:21:21.183Z,0
2016-07-18T02:22:21.213Z,0
2016-07-18T02:23:21.937Z,0
2016-07-18T02:24:21.263Z,0
2016-07-18T02:25:21.288Z,0
2016-07-18T02:26:21.326Z,0
2016-07-18T02:27:36.323Z,0
2016-07-18T02:28:36.305Z,0
2016-07-18T02:29:21.402Z,0
2016-07-18T02:31:21.457Z,0
2016-07-18T02:32:21.490Z,0
2016-07-18T02:33:21.519Z,0
2016-07-18T02:34:21.539Z,4
2016-07-18T02:35:21.562Z,0
2016-07-18T02:36:21.585Z,0
2016-07-18T02:37:21.620Z,0
2016-07-18T02:38:22.342Z,0
2016-07-18T02:39:36.603Z,0
2016-07-18T02:40:21.700Z,4
2016-07-18T02:41:36.655Z,4
2016-07-18T02:42:21.758Z,4
2016-07-18T02:43:21.777Z,4
2016-07-18T02:44:36.731Z,4
2016-07-18T02:45:22.541Z,8
2016-07-18T02:46:21.860Z,4
2016-07-18T02:47:21.892Z,4
2016-07-18T02:48:21.910Z,4
2016-07-18T02:49:21.950Z,8
2016-07-18T02:50:21.964Z,8
2016-07-18T02:51:22.005Z,4
2016-07-18T02:52:36.957Z,12
2016-07-18T02:53:22.043Z,8
2016-07-18T02:54:22.085Z,12
2016-07-18T02:55:22.103Z,12
2016-07-18T02:56:22.140Z,20
2016-07-18T02:58:22.199Z,20
2016-07-18T02:59:37.151Z,28
2016-07-18T03:00:22.239Z,32
2016-07-18T03:01:22.274Z,36
2016-07-18T03:02:22.296Z,44
2016-07-18T03:03:22.319Z,52
2016-07-18T03:04:22.346Z,60
2016-07-18T03:05:22.376Z,68
2016-07-18T03:06:22.403Z,72
2016-07-18T03:07:22.427Z,80
2016-07-18T03:08:22.458Z,88
2016-07-18T03:09:22.485Z,96
2016-07-18T03:10:22.509Z,100
2016-07-18T03:11:22.533Z,104
2016-07-18T03:12:22.558Z,112
2016-07-18T03:13:37.513Z,116
2016-07-18T03:14:22.619Z,124
2016-07-18T03:15:22.651Z,136
2016-07-18T03:16:37.595Z,156
2016-07-18T03:17:22.695Z,164
2016-07-18T03:18:22.723Z,184
2016-07-18T03:19:22.750Z,200
2016-07-18T03:20:22.778Z,212
2016-07-18T03:22:22.830Z,252
2016-07-18T03:23:22.868Z,272
2016-07-18T03:24:22.881Z,296
2016-07-18T03:25:22.915Z,324
2016-07-18T03:26:37.864Z,360
2016-07-18T03:27:22.967Z,380
2016-07-18T03:28:22.992Z,416
2016-07-18T03:29:37.946Z,460
2016-07-18T03:30:23.035Z,496
2016-07-18T03:31:37.992Z,556
2016-07-18T03:32:23.099Z,592
2016-07-18T03:33:23.124Z,648
2016-07-18T03:34:23.152Z,712
2016-07-18T03:35:23.182Z,784
2016-07-18T03:37:23.228Z,1020
2016-07-18T03:38:23.260Z,1148
2016-07-18T03:39:23.281Z,1284
2016-07-18T03:40:23.314Z,1456
2016-07-18T03:41:23.343Z,1596
2016-07-18T03:42:24.069Z,1704
2016-07-18T03:43:38.320Z,1844
2016-07-18T03:44:23.416Z,1936
2016-07-18T03:45:23.450Z,2060
2016-07-18T03:46:23.471Z,2184
2016-07-18T03:47:38.425Z,2376
2016-07-18T03:48:23.531Z,2528
2016-07-18T03:49:23.551Z,2736
2016-07-18T03:50:23.580Z,2928
2016-07-18T03:51:23.606Z,3044
2016-07-18T03:52:23.722Z,3072
2016-07-18T03:53:23.669Z,3080
2016-07-18T03:54:23.693Z,3104
2016-07-18T03:55:23.711Z,3220
2016-07-18T03:57:38.695Z,3840
2016-07-18T03:59:24.524Z,4068
2016-07-18T04:00:23.863Z,4112
2016-07-18T04:01:23.883Z,4304
2016-07-18T04:02:23.908Z,4404
2016-07-18T04:03:38.853Z,4428
2016-07-18T04:04:23.952Z,4396
2016-07-18T04:06:24.008Z,4120
2016-07-18T04:07:24.039Z,3924
2016-07-18T04:08:24.064Z,3724
2016-07-18T04:09:24.092Z,3908
2016-07-18T04:10:24.124Z,4612
2016-07-18T04:11:24.151Z,4284
2016-07-18T04:12:24.169Z,3768
2016-07-18T04:13:39.837Z,3268
2016-07-18T04:14:24.221Z,3168
2016-07-18T04:15:24.254Z,3348
2016-07-18T04:16:24.276Z,3844
2016-07-18T04:17:24.309Z,5476
2016-07-18T04:18:24.335Z,8476
2016-07-18T04:19:39.283Z,4608
2016-07-18T04:20:24.385Z,5916
2016-07-18T04:21:24.419Z,4576
2016-07-18T04:22:24.442Z,4736
2016-07-18T04:23:24.471Z,5456
2016-07-18T04:24:24.492Z,6056
2016-07-18T04:25:25.224Z,6412
2016-07-18T04:26:24.542Z,5616
2016-07-18T04:27:24.575Z,5000
2016-07-18T04:28:24.599Z,4240
2016-07-18T04:29:24.630Z,3652
2016-07-18T04:30:39.589Z,3256
2016-07-18T04:31:24.687Z,2988
2016-07-18T04:32:24.712Z,2572
2016-07-18T04:33:24.735Z,2192
2016-07-18T04:34:39.697Z,1768
2016-07-18T04:35:24.790Z,1620
2016-07-18T04:36:24.817Z,1516
2016-07-18T04:37:24.851Z,1492
2016-07-18T04:38:24.874Z,1456
2016-07-18T04:39:24.907Z,1408
2016-07-18T04:40:25.628Z,1348
2016-07-18T04:41:24.953Z,1244
2016-07-18T04:42:24.978Z,1144
2016-07-18T04:43:25.009Z,1088
2016-07-18T04:44:25.031Z,1008
2016-07-18T04:45:39.990Z,920
2016-07-18T04:46:25.090Z,884
2016-07-18T04:47:25.107Z,892
2016-07-18T04:48:25.146Z,860
2016-07-18T04:51:25.220Z,744
2016-07-18T04:52:25.259Z,692
2016-07-18T04:53:25.279Z,644
2016-07-18T04:55:25.331Z,560
2016-07-18T04:56:25.355Z,508
2016-07-18T04:57:25.437Z,464
2016-07-18T04:59:25.450Z,436
2016-07-18T05:01:25.490Z,448
2016-07-18T05:02:25.516Z,452
2016-07-18T05:03:40.471Z,484
2016-07-18T05:04:40.498Z,492
2016-07-18T05:05:40.526Z,504
2016-07-18T05:07:25.656Z,512
2016-07-18T05:09:25.706Z,508
2016-07-18T05:12:25.787Z,480
2016-07-18T05:13:25.820Z,424
2016-07-18T05:14:25.844Z,392
2016-07-18T05:15:25.870Z,368
2016-07-18T05:16:25.894Z,352
2016-07-18T05:17:25.922Z,348
2016-07-18T05:18:25.950Z,372
2016-07-18T05:20:26.005Z,472
2016-07-18T05:21:26.024Z,528
2016-07-18T05:22:40.974Z,552
2016-07-18T05:23:26.774Z,584
2016-07-18T05:24:26.105Z,620
2016-07-18T05:25:26.134Z,652
2016-07-18T05:26:26.160Z,684
2016-07-18T05:27:26.204Z,684
2016-07-18T05:28:26.209Z,708
2016-07-18T05:30:26.265Z,836
2016-07-18T05:31:27.698Z,948
2016-07-18T05:32:26.313Z,956
2016-07-18T05:33:26.349Z,912
2016-07-18T05:34:41.301Z,832
2016-07-18T05:35:26.398Z,788
2016-07-18T05:36:41.355Z,732
2016-07-18T05:37:41.379Z,736
2016-07-18T05:38:41.408Z,716
2016-07-18T05:39:41.430Z,680
2016-07-18T05:40:26.541Z,708
2016-07-18T05:41:26.567Z,832
2016-07-18T05:42:26.604Z,880
2016-07-18T05:43:26.615Z,836
2016-07-18T05:44:26.644Z,792
2016-07-18T05:45:26.673Z,748
2016-07-18T05:46:26.699Z,720
2016-07-18T05:47:41.652Z,740
2016-07-18T05:48:26.751Z,784
2016-07-18T05:49:26.776Z,832
2016-07-18T05:50:41.729Z,836
2016-07-18T05:51:26.824Z,856
2016-07-18T05:52:26.860Z,880
2016-07-18T05:54:41.836Z,1060
2016-07-18T05:55:26.934Z,1052
2016-07-18T05:56:27.011Z,1056
2016-07-18T05:57:26.984Z,1192
2016-07-18T05:58:27.015Z,1324
2016-07-18T05:59:27.039Z,1180
2016-07-18T06:00:27.069Z,992
2016-07-18T06:01:27.100Z,932
2016-07-18T06:02:27.125Z,864
2016-07-18T06:03:27.159Z,916
2016-07-18T06:04:27.171Z,1060
2016-07-18T06:05:27.200Z,1216
2016-07-18T06:06:27.236Z,1524
2016-07-18T06:07:27.260Z,1732
2016-07-18T06:08:27.284Z,1828
2016-07-18T06:10:27.333Z,1996
2016-07-18T06:11:42.282Z,2008
2016-07-18T06:12:27.390Z,1992
2016-07-18T06:13:27.415Z,2008
2016-07-18T06:14:27.439Z,2112
2016-07-18T06:15:27.469Z,2588
2016-07-18T06:16:27.504Z,3060
2016-07-18T06:17:27.534Z,3140
2016-07-18T06:19:27.577Z,2692
2016-07-18T06:20:27.606Z,2228
2016-07-18T06:21:27.627Z,2072
2016-07-18T06:22:42.583Z,2120
2016-07-18T06:23:27.696Z,2364
2016-07-18T06:24:27.704Z,2568
2016-07-18T06:25:42.658Z,2344
2016-07-18T06:26:27.770Z,2264
2016-07-18T06:27:27.799Z,2388
2016-07-18T06:28:27.819Z,2280
2016-07-18T06:29:28.542Z,2060
2016-07-18T06:30:27.869Z,2200
2016-07-18T06:31:27.895Z,2296
2016-07-18T06:32:28.645Z,2416
2016-07-18T06:33:27.953Z,2352
2016-07-18T06:34:27.973Z,2260
2016-07-18T06:35:27.997Z,2132
2016-07-18T06:36:28.036Z,2336
2016-07-18T06:37:28.070Z,2436
2016-07-18T06:38:28.082Z,2512
2016-07-18T06:39:28.107Z,3032
2016-07-18T06:40:28.141Z,3412
2016-07-18T06:41:43.089Z,3460
2016-07-18T06:42:43.113Z,3196
2016-07-18T06:43:28.224Z,2880
2016-07-18T06:44:28.247Z,2368
2016-07-18T06:45:28.272Z,2024
2016-07-18T06:46:43.235Z,1892
2016-07-18T06:47:28.328Z,1816
2016-07-18T06:48:28.356Z,1580
2016-07-18T06:49:28.380Z,1480
2016-07-18T06:50:28.403Z,1500
2016-07-18T06:51:28.430Z,1568
2016-07-18T06:53:28.488Z,1948
2016-07-18T06:54:28.517Z,2184
2016-07-18T06:55:28.539Z,2196
2016-07-18T06:56:43.493Z,2324
2016-07-18T06:57:43.528Z,2532
2016-07-18T06:58:28.633Z,2828
2016-07-18T06:59:28.651Z,3408
2016-07-18T07:00:28.674Z,3868
2016-07-18T07:03:28.755Z,4352
2016-07-18T07:04:29.494Z,4988
2016-07-18T07:05:28.811Z,6020
2016-07-18T07:06:28.840Z,6208
2016-07-18T07:07:28.873Z,6244
2016-07-18T07:08:43.821Z,5860
2016-07-18T07:09:28.927Z,5180
2016-07-18T07:10:28.959Z,4564
2016-07-18T07:11:28.969Z,4516
2016-07-18T07:12:29.001Z,5356
2016-07-18T07:13:43.956Z,6516
2016-07-18T07:14:29.055Z,7328
2016-07-18T07:15:29.081Z,9044
2016-07-18T07:16:29.805Z,10160
2016-07-18T07:17:29.132Z,10584
2016-07-18T07:18:29.154Z,10584
2016-07-18T07:19:29.184Z,10652
2016-07-18T07:20:29.209Z,10476
2016-07-18T07:21:29.245Z,9964
2016-07-18T07:22:29.265Z,9492
2016-07-18T07:23:29.317Z,9268
2016-07-18T07:24:29.328Z,9028
2016-07-18T07:25:29.350Z,8724
2016-07-18T07:26:29.382Z,8564
2016-07-18T07:27:29.406Z,8568
2016-07-18T07:28:29.442Z,8896
2016-07-18T07:31:29.522Z,8512
2016-07-18T07:32:29.549Z,8104
2016-07-18T07:33:29.572Z,7780
2016-07-18T07:34:29.591Z,7852
2016-07-18T07:35:29.631Z,8252
2016-07-18T07:36:29.648Z,9244
2016-07-18T07:37:29.677Z,9692
2016-07-18T07:38:29.708Z,9560
2016-07-18T07:39:29.735Z,9612
2016-07-18T07:40:29.774Z,10084
2016-07-18T07:41:29.793Z,10420
2016-07-18T07:43:29.846Z,11244
2016-07-18T07:44:44.801Z,11060
2016-07-18T07:45:29.908Z,10176
2016-07-18T07:46:29.932Z,10024
2016-07-18T07:47:29.964Z,9216
2016-07-18T07:49:30.024Z,8620
2016-07-18T07:50:30.043Z,9296
2016-07-18T07:51:45.007Z,9200
2016-07-18T07:52:30.117Z,9432
2016-07-18T07:53:30.124Z,9960
2016-07-18T07:55:30.190Z,9628
2016-07-18T07:56:30.213Z,9076
2016-07-18T07:57:30.240Z,8696
2016-07-18T07:58:45.195Z,8896
2016-07-18T07:59:30.299Z,9024
2016-07-18T08:00:30.319Z,8380
2016-07-18T08:01:45.273Z,7408
2016-07-18T08:02:30.380Z,7112
2016-07-18T08:03:30.412Z,6936
2016-07-18T08:04:30.438Z,7196
2016-07-18T08:05:30.462Z,7460
2016-07-18T08:06:30.497Z,8228
2016-07-18T08:07:30.529Z,8620
2016-07-18T08:08:30.552Z,8892
2016-07-18T08:09:30.579Z,8992
2016-07-18T08:10:30.609Z,8368
2016-07-18T08:11:30.643Z,8500
2016-07-18T08:12:30.672Z,7548
2016-07-18T08:14:30.739Z,5668
2016-07-18T08:15:30.748Z,5264
2016-07-18T08:16:45.704Z,5560
2016-07-18T08:17:30.803Z,5524
2016-07-18T08:18:30.843Z,5356
2016-07-18T08:19:30.858Z,5544
2016-07-18T08:20:30.891Z,5304
2016-07-18T08:21:30.917Z,4728
2016-07-18T08:22:30.944Z,4424
2016-07-18T08:24:30.999Z,4528
2016-07-18T08:25:31.719Z,5208
2016-07-18T08:26:31.064Z,6712
2016-07-18T08:28:46.042Z,7964
2016-07-18T08:29:46.077Z,7840
2016-07-18T08:30:31.184Z,7452
2016-07-18T08:31:31.196Z,6832
2016-07-18T08:32:46.145Z,6060
2016-07-18T08:33:31.253Z,5692
2016-07-18T08:34:31.285Z,5552
2016-07-18T08:35:31.306Z,5712
2016-07-18T08:36:31.333Z,6308
2016-07-18T08:37:32.059Z,7296
2016-07-18T08:38:31.394Z,7620
2016-07-18T08:39:31.422Z,7892
2016-07-18T08:40:46.379Z,8624
2016-07-18T08:41:31.469Z,9364
2016-07-18T08:43:31.536Z,8208
2016-07-18T08:44:46.486Z,8924
2016-07-18T08:45:31.588Z,9416
2016-07-18T08:46:31.610Z,8696
2016-07-18T08:47:31.646Z,8180
2016-07-18T08:48:46.592Z,7792
2016-07-18T08:49:31.697Z,7452
2016-07-18T08:50:31.725Z,6716
2016-07-18T08:51:31.756Z,5564
2016-07-18T08:52:31.787Z,4560
2016-07-18T08:53:31.813Z,4216
2016-07-18T08:54:31.837Z,3856
2016-07-18T08:55:31.860Z,3456
2016-07-18T08:56:31.896Z,3204
2016-07-18T08:57:31.929Z,3156
2016-07-18T08:58:31.947Z,3436
2016-07-18T08:59:32.683Z,3708
2016-07-18T09:00:31.998Z,3628
2016-07-18T09:01:32.035Z,3312
2016-07-18T09:02:46.986Z,2864
2016-07-18T09:03:32.093Z,2720
2016-07-18T09:04:47.046Z,2572
2016-07-18T09:05:32.145Z,2668
2016-07-18T09:06:32.177Z,2892
2016-07-18T09:07:32.206Z,3336
2016-07-18T09:08:32.232Z,4036
2016-07-18T09:09:32.249Z,4664
2016-07-18T09:10:32.288Z,5660
2016-07-18T09:11:32.310Z,6128
2016-07-18T09:12:32.336Z,5748
2016-07-18T09:13:47.297Z,5500
2016-07-18T09:14:32.393Z,5516
2016-07-18T09:15:32.486Z,5540
2016-07-18T09:16:47.375Z,5516
2016-07-18T09:17:32.476Z,5288
2016-07-18T09:18:47.429Z,5064
2016-07-18T09:19:47.456Z,4764
2016-07-18T09:20:32.565Z,4616
2016-07-18T09:21:32.593Z,4500
2016-07-18T09:22:32.618Z,5324
2016-07-18T09:23:32.646Z,6420
2016-07-18T09:24:32.684Z,7344
2016-07-18T09:25:32.699Z,8072
2016-07-18T09:26:32.734Z,8380
2016-07-18T09:27:32.755Z,7532
2016-07-18T09:28:32.781Z,6384
2016-07-18T09:29:47.736Z,5992
2016-07-18T09:30:32.832Z,5784
2016-07-18T09:31:32.860Z,6148
2016-07-18T09:32:32.895Z,6572
2016-07-18T09:33:32.919Z,6168
2016-07-18T09:34:32.945Z,5628
2016-07-18T09:35:47.899Z,5280
2016-07-18T09:36:47.923Z,5068
2016-07-18T09:37:33.028Z,4980
2016-07-18T09:39:33.089Z,4196
2016-07-18T09:40:33.114Z,3680
2016-07-18T09:41:33.151Z,3324
2016-07-18T09:42:33.171Z,3048
2016-07-18T09:43:33.192Z,2812
2016-07-18T09:44:33.231Z,2596
2016-07-18T09:45:33.254Z,2664
2016-07-18T09:46:48.210Z,2828
2016-07-18T09:47:33.309Z,2816
2016-07-18T09:48:48.262Z,2864
2016-07-18T09:49:33.368Z,3020
2016-07-18T09:50:33.377Z,3264
2016-07-18T09:52:33.441Z,3616
2016-07-18T09:54:48.418Z,3712
2016-07-18T09:55:33.523Z,3724
2016-07-18T09:56:34.255Z,3864
2016-07-18T09:57:33.584Z,4304
2016-07-18T09:58:33.605Z,5724
2016-07-18T09:59:33.639Z,7052
2016-07-18T10:00:33.661Z,7552
2016-07-18T10:01:33.698Z,6884
2016-07-18T10:02:33.709Z,5984
2016-07-18T10:03:33.750Z,5896
2016-07-18T10:04:33.769Z,6480
2016-07-18T10:05:33.806Z,6248
2016-07-18T10:06:33.823Z,5624
2016-07-18T10:07:48.791Z,4696
2016-07-18T10:08:48.802Z,4332
2016-07-18T10:09:34.604Z,3992
2016-07-18T10:10:33.943Z,3296
2016-07-18T10:11:33.975Z,2856
2016-07-18T10:12:33.994Z,2600
2016-07-18T10:13:34.026Z,2444
2016-07-18T10:14:34.044Z,2456
2016-07-18T10:15:34.772Z,2616
2016-07-18T10:16:34.102Z,2940
2016-07-18T10:18:34.163Z,4040
2016-07-18T10:19:34.188Z,4932
2016-07-18T10:20:34.221Z,5532
2016-07-18T10:21:34.258Z,5300
2016-07-18T10:22:34.270Z,5316
2016-07-18T10:24:04.154Z,5424
2016-07-18T10:24:34.325Z,5224
2016-07-18T10:25:34.349Z,5060
2016-07-18T10:27:34.413Z,6932
2016-07-18T10:28:34.434Z,8972
2016-07-18T10:29:34.460Z,10864
2016-07-18T10:30:34.489Z,12208
2016-07-18T10:33:34.575Z,10960
2016-07-18T10:34:34.601Z,9336
2016-07-18T10:35:34.631Z,7860
2016-07-18T10:36:36.051Z,6948
2016-07-18T10:37:49.611Z,6520
2016-07-18T10:38:34.713Z,6700
2016-07-18T10:39:49.669Z,6420
2016-07-18T10:40:49.694Z,6012
2016-07-18T10:41:34.797Z,5840
2016-07-18T10:42:34.827Z,6240
2016-07-18T10:43:34.850Z,7476
2016-07-18T10:44:34.875Z,8988
2016-07-18T10:45:34.900Z,9968
2016-07-18T10:46:34.940Z,10536
2016-07-18T10:47:34.964Z,10548
2016-07-18T10:48:34.983Z,9956
2016-07-18T10:49:35.015Z,9232
2016-07-18T10:50:35.046Z,8768
2016-07-18T10:51:35.074Z,8600
2016-07-18T10:52:35.111Z,8480
2016-07-18T10:53:35.135Z,8592
2016-07-18T10:54:50.081Z,8396
2016-07-18T10:55:35.189Z,8168
2016-07-18T10:56:50.148Z,8192
2016-07-18T10:58:35.280Z,11512
2016-07-18T10:59:35.306Z,12792
2016-07-18T11:00:35.330Z,16004
2016-07-18T11:01:35.369Z,9752
2016-07-18T11:02:35.385Z,9444
2016-07-18T11:03:50.346Z,8228
2016-07-18T11:04:35.444Z,7208
2016-07-18T11:05:35.502Z,6120
2016-07-18T11:06:50.463Z,5188
2016-07-18T11:07:35.555Z,4696
2016-07-18T11:08:35.562Z,4272
2016-07-18T11:09:35.587Z,4160
2016-07-18T11:10:51.240Z,3872
2016-07-18T11:11:35.639Z,3768
2016-07-18T11:12:35.684Z,4144
2016-07-18T11:13:35.699Z,5128
2016-07-18T11:14:35.731Z,6532
2016-07-18T11:15:35.752Z,7532
2016-07-18T11:16:35.787Z,8044
2016-07-18T11:17:35.821Z,8692
2016-07-18T11:18:35.845Z,9428
2016-07-18T11:19:35.875Z,10160
2016-07-18T11:20:35.898Z,11036
2016-07-18T11:21:35.927Z,11396
2016-07-18T11:22:35.958Z,10920
2016-07-18T11:23:35.987Z,10916
2016-07-18T11:24:36.011Z,10680
2016-07-18T11:25:50.964Z,10988
2016-07-18T11:27:36.100Z,10720
2016-07-18T11:29:36.155Z,10028
2016-07-18T11:30:36.182Z,9444
2016-07-18T11:32:36.941Z,11180
2016-07-18T11:33:36.265Z,11788
2016-07-18T11:34:36.304Z,14420
2016-07-18T11:35:36.327Z,13400
2016-07-18T11:36:36.354Z,12400
2016-07-18T11:38:36.423Z,15648
2016-07-18T11:39:51.368Z,15964
2016-07-18T11:40:36.472Z,11652
2016-07-18T11:41:36.496Z,12992
2016-07-18T11:42:51.453Z,11184
2016-07-18T11:43:37.256Z,10692
2016-07-18T11:44:36.589Z,9880
2016-07-18T11:45:36.618Z,9792
2016-07-18T11:46:37.356Z,8500
2016-07-18T11:47:36.672Z,7284
2016-07-18T11:48:36.704Z,6636
2016-07-18T11:49:38.127Z,9392
2016-07-18T11:50:51.691Z,6700
2016-07-18T11:51:36.792Z,8780
2016-07-18T11:52:36.821Z,7952
2016-07-18T11:53:36.852Z,10016
2016-07-18T11:54:36.876Z,10312
2016-07-18T11:55:36.912Z,8172
2016-07-18T11:56:36.934Z,8892
2016-07-18T11:57:36.964Z,9720
2016-07-18T11:58:51.922Z,8336
2016-07-18T11:59:37.023Z,7624
2016-07-18T12:00:37.064Z,6808
2016-07-18T12:02:37.112Z,5372
2016-07-18T12:03:37.889Z,4972
2016-07-18T12:04:37.170Z,5016
2016-07-18T12:05:37.205Z,5524
2016-07-18T12:06:37.223Z,5512
2016-07-18T12:07:37.950Z,5216
2016-07-18T12:08:37.301Z,5192
2016-07-18T12:10:37.344Z,4840
2016-07-18T12:11:37.374Z,5044
2016-07-18T12:12:37.398Z,4728
2016-07-18T12:13:37.432Z,4556
2016-07-18T12:15:52.408Z,4536
2016-07-18T12:16:52.437Z,4812
2016-07-18T12:17:37.549Z,5532
2016-07-18T12:19:37.607Z,5960
2016-07-18T12:20:37.623Z,5232
2016-07-18T12:22:37.695Z,4012
2016-07-18T12:24:37.746Z,3472
2016-07-18T12:25:37.789Z,3212
2016-07-18T12:26:37.808Z,3104
2016-07-18T12:27:37.833Z,3044
2016-07-18T12:28:37.869Z,3048
2016-07-18T12:29:52.821Z,3144
2016-07-18T12:30:37.916Z,3252
2016-07-18T12:31:37.946Z,3408
2016-07-18T12:32:37.975Z,3668
2016-07-18T12:33:38.001Z,4108
2016-07-18T12:34:38.036Z,4720
2016-07-18T12:35:38.067Z,5524
2016-07-18T12:36:38.082Z,6348
2016-07-18T12:37:38.122Z,7116
2016-07-18T12:38:53.074Z,7864
2016-07-18T12:39:38.181Z,8176
2016-07-18T12:40:38.213Z,8448
2016-07-18T12:41:38.234Z,8644
2016-07-18T12:42:53.184Z,9088
2016-07-18T12:43:38.289Z,9240
2016-07-18T12:45:38.345Z,9140
2016-07-18T12:46:38.424Z,8904
2016-07-18T12:47:38.398Z,8640
2016-07-18T12:48:38.427Z,8172
2016-07-18T12:49:38.462Z,7896
2016-07-18T12:50:38.486Z,8012
2016-07-18T12:51:38.523Z,8176
2016-07-18T12:52:38.561Z,8372
2016-07-18T12:53:38.573Z,8592
2016-07-18T12:54:38.613Z,8788
2016-07-18T12:55:38.640Z,9008
2016-07-18T12:56:38.665Z,9360
2016-07-18T12:57:38.694Z,9528
2016-07-18T12:58:53.643Z,9756
2016-07-18T12:59:38.749Z,9952
2016-07-18T13:00:38.776Z,10156
2016-07-18T13:01:53.728Z,10292
2016-07-18T13:02:38.835Z,10176
2016-07-18T13:03:38.864Z,10040
2016-07-18T13:04:38.902Z,10060
2016-07-18T13:05:38.926Z,9992
2016-07-18T13:06:39.650Z,9900
2016-07-18T13:07:38.989Z,9904
2016-07-18T13:09:39.040Z,9936
2016-07-18T13:10:39.067Z,9912
2016-07-18T13:11:39.092Z,9840
2016-07-18T13:13:39.161Z,9684
2016-07-18T13:14:39.886Z,9632
2016-07-18T13:15:39.218Z,9480
2016-07-18T13:16:39.241Z,9328
2016-07-18T13:17:54.196Z,9428
2016-07-18T13:18:39.296Z,9556
2016-07-18T13:19:54.248Z,9760
2016-07-18T13:20:39.362Z,9956
2016-07-18T13:21:39.383Z,10036
2016-07-18T13:22:39.424Z,10084
2016-07-18T13:23:39.447Z,10068
2016-07-18T13:25:39.504Z,9832
2016-07-18T13:26:39.532Z,9620
2016-07-18T13:27:39.566Z,9324
2016-07-18T13:28:39.599Z,9132
2016-07-18T13:29:39.627Z,9240
2016-07-18T13:30:39.651Z,8460
2016-07-18T13:31:54.608Z,8208
2016-07-18T13:32:39.711Z,8156
2016-07-18T13:33:54.667Z,8076
2016-07-18T13:34:39.774Z,8056
2016-07-18T13:35:39.798Z,8096
2016-07-18T13:36:39.831Z,8196
2016-07-18T13:37:39.853Z,8176
2016-07-18T13:38:39.906Z,8048
2016-07-18T13:39:39.914Z,7804
2016-07-18T13:40:39.946Z,7368
2016-07-18T13:41:39.978Z,6720
2016-07-18T13:42:40.011Z,6008
2016-07-18T13:43:40.029Z,5700
2016-07-18T13:44:40.063Z,5544
2016-07-18T13:45:40.093Z,5472
2016-07-18T13:46:55.051Z,5804
2016-07-18T13:47:55.078Z,5808
2016-07-18T13:48:40.180Z,5700
2016-07-18T13:49:55.140Z,5232
2016-07-18T13:50:40.242Z,4832
2016-07-18T13:51:40.275Z,4428
2016-07-18T13:52:40.296Z,4136
2016-07-18T13:54:40.358Z,3580
2016-07-18T13:55:40.379Z,3264
2016-07-18T13:56:40.414Z,3128
2016-07-18T13:57:40.450Z,3080
2016-07-18T13:58:40.478Z,3252
2016-07-18T13:59:40.498Z,3696
2016-07-18T14:00:40.531Z,4688
2016-07-18T14:02:40.594Z,6476
2016-07-18T14:03:40.618Z,7028
2016-07-18T14:04:55.571Z,7472
2016-07-18T14:05:40.678Z,7620
2016-07-18T14:06:40.705Z,7672
2016-07-18T14:08:40.769Z,7656
2016-07-18T14:09:40.791Z,7628
2016-07-18T14:10:40.824Z,7548
2016-07-18T14:11:40.850Z,7400
2016-07-18T14:12:40.895Z,7136
2016-07-18T14:13:40.910Z,6948
2016-07-18T14:15:40.968Z,5880
2016-07-18T14:16:41.004Z,5260
2016-07-18T14:17:55.952Z,4772
2016-07-18T14:18:41.062Z,4604
2016-07-18T14:19:56.007Z,4980
2016-07-18T14:21:41.144Z,5176
2016-07-18T14:22:41.166Z,5152
2016-07-18T14:23:41.203Z,4972
2016-07-18T14:24:41.224Z,4732
2016-07-18T14:25:41.261Z,4432
2016-07-18T14:26:41.279Z,3812
2016-07-18T14:27:42.012Z,3528
2016-07-18T14:28:41.339Z,3424
2016-07-18T14:29:41.376Z,3516
2016-07-18T14:30:41.403Z,3776
2016-07-18T14:31:42.129Z,4012
2016-07-18T14:32:41.459Z,4180
2016-07-18T14:33:41.491Z,4308
2016-07-18T14:34:56.442Z,4488
2016-07-18T14:35:56.470Z,4576
2016-07-18T14:36:56.501Z,4692
2016-07-18T14:37:41.600Z,4808
2016-07-18T14:38:41.632Z,4888
2016-07-18T14:39:41.664Z,5016
2016-07-18T14:40:41.694Z,4928
2016-07-18T14:41:41.726Z,5132
2016-07-18T14:42:41.751Z,5112
2016-07-18T14:43:41.770Z,5268
2016-07-18T14:44:41.800Z,5232
2016-07-18T14:45:41.836Z,5568
2016-07-18T14:46:41.863Z,5900